Time;durP1;ratioP1;P1;durP2;ratioP2;P2;SDS_P1;SDS_P2;PMS_P1;PMS_P2;Temp;Humidity;BMP_temperature;BMP_pressure;BME280_temperature;BME280_humidity;BME280_pressure;Samples;Min_cycle;Max_cycle;Signal;HPM_P1;HPM_P2
2021/12/28 00:01:43;;;;;;;;;;;17.80;40.00;;;;;;8297180;28;19925;-52
2021/12/28 00:05:43;;;;;;;;;;;17.80;40.00;;;;;;8298066;28;19914;-49
2021/12/28 00:09:44;;;;;;;;;;;17.80;40.00;;;;;;8297557;28;19925;-51
2021/12/28 00:13:45;;;;;;;;;;;17.80;40.00;;;;;;8296885;28;19932;-50
2021/12/28 00:18:04;;;;;;;;;;;17.80;40.00;;;;;;8297542;28;19925;-50
2021/12/28 00:22:05;;;;;;;;;;;17.80;40.00;;;;;;8297494;28;19921;-52
2021/12/28 00:26:07;;;;;;;;;;;17.80;40.00;;;;;;8297117;28;20000;-51
2021/12/28 00:30:08;;;;;;;;;;;17.80;39.90;;;;;;8297071;28;19992;-53
2021/12/28 00:34:08;;;;;;;;;;;17.70;39.90;;;;;;8297279;28;19918;-48
2021/12/28 00:38:10;;;;;;;;;;;17.70;39.90;;;;;;8296582;28;20449;-50
2021/12/28 00:42:11;;;;;;;;;;;17.70;39.90;;;;;;8296902;28;19988;-49
2021/12/28 00:46:11;;;;;;;;;;;17.70;39.90;;;;;;8297683;28;19922;-49
2021/12/28 00:50:13;;;;;;;;;;;17.70;39.90;;;;;;8296429;28;19918;-50
2021/12/28 00:54:13;;;;;;;;;;;17.70;39.80;;;;;;8296825;28;20009;-48
2021/12/28 00:58:14;;;;;;;;;;;17.70;39.80;;;;;;8296344;28;19948;-47
2021/12/28 01:02:15;;;;;;;;;;;17.70;39.80;;;;;;8296763;28;20454;-49
2021/12/28 01:06:15;;;;;;;;;;;17.70;39.80;;;;;;8301897;28;19925;-49
2021/12/28 01:10:18;;;;;;;;;;;17.70;39.80;;;;;;8302279;28;19917;-49
2021/12/28 01:14:18;;;;;;;;;;;17.70;39.90;;;;;;8302379;28;19921;-49
2021/12/28 01:18:19;;;;;;;;;;;17.60;39.80;;;;;;8302869;28;19947;-49
2021/12/28 01:22:20;;;;;;;;;;;17.60;39.80;;;;;;8301794;28;19922;-49
2021/12/28 01:26:20;;;;;;;;;;;17.60;39.70;;;;;;8302763;28;19921;-48
2021/12/28 01:30:22;;;;;;;;;;;17.60;39.80;;;;;;8302201;28;19953;-49
2021/12/28 01:34:22;;;;;;;;;;;17.60;39.70;;;;;;8301541;28;20256;-49
2021/12/28 01:38:22;;;;;;;;;;;17.60;39.70;;;;;;8302121;28;19925;-52
2021/12/28 01:42:23;;;;;;;;;;;17.60;39.80;;;;;;8301880;28;19917;-50
2021/12/28 01:46:24;;;;;;;;;;;17.60;39.80;;;;;;8301831;28;19926;-48
2021/12/28 01:50:24;;;;;;;;;;;17.60;39.90;;;;;;8301696;28;19918;-50
2021/12/28 01:54:25;;;;;;;;;;;17.60;39.90;;;;;;8301270;28;20008;-49
2021/12/28 01:58:25;;;;;;;;;;;17.60;40.00;;;;;;8300650;28;20008;-49
2021/12/28 02:02:26;;;;;;;;;;;17.60;40.00;;;;;;8301260;28;20405;-49
2021/12/28 02:06:27;;;;;;;;;;;17.60;39.90;;;;;;8300582;28;19921;-49
2021/12/28 02:10:27;;;;;;;;;;;17.70;40.00;;;;;;8300165;28;19948;-49
2021/12/28 02:14:28;;;;;;;;;;;17.70;40.00;;;;;;8300881;28;19926;-48
2021/12/28 02:18:29;;;;;;;;;;;17.60;40.00;;;;;;8300048;28;19968;-48
2021/12/28 02:22:29;;;;;;;;;;;17.70;40.00;;;;;;8299958;28;19924;-49
2021/12/28 02:26:30;;;;;;;;;;;17.70;40.00;;;;;;8300422;28;19917;-49
2021/12/28 02:30:30;;;;;;;;;;;17.70;40.00;;;;;;8300123;28;20275;-50
2021/12/28 02:34:31;;;;;;;;;;;17.70;40.00;;;;;;8299626;28;20024;-49
2021/12/28 02:38:33;;;;;;;;;;;17.70;40.00;;;;;;8300104;28;19925;-48
2021/12/28 02:42:33;;;;;;;;;;;17.70;40.00;;;;;;8299838;28;19918;-49
2021/12/28 02:46:34;;;;;;;;;;;17.70;40.00;;;;;;8299920;28;19930;-49
2021/12/28 02:50:36;;;;;;;;;;;17.70;40.00;;;;;;8299577;28;19921;-48
2021/12/28 02:54:38;;;;;;;;;;;17.70;40.00;;;;;;8299470;28;19924;-50
2021/12/28 02:58:40;;;;;;;;;;;17.70;39.90;;;;;;8298626;28;19956;-50
2021/12/28 03:02:41;;;;;;;;;;;17.70;39.90;;;;;;8299298;28;20000;-51
2021/12/28 03:06:41;;;;;;;;;;;17.70;39.90;;;;;;8299340;28;19925;-51
2021/12/28 03:10:43;;;;;;;;;;;17.70;39.90;;;;;;8298414;28;19961;-50
2021/12/28 03:14:46;;;;;;;;;;;17.70;39.90;;;;;;8298792;28;19961;-50
2021/12/28 03:18:46;;;;;;;;;;;17.70;39.90;;;;;;8298663;28;19943;-49
2021/12/28 03:22:47;;;;;;;;;;;17.60;39.90;;;;;;8298343;28;20517;-49
2021/12/28 03:26:47;;;;;;;;;;;17.60;39.80;;;;;;8298177;28;19924;-49
2021/12/28 03:30:49;;;;;;;;;;;17.60;39.80;;;;;;8298310;28;19967;-51
2021/12/28 03:34:49;;;;;;;;;;;17.60;39.80;;;;;;8297825;28;19917;-51
2021/12/28 03:38:50;;;;;;;;;;;17.60;39.80;;;;;;8298196;28;19921;-50
2021/12/28 03:42:51;;;;;;;;;;;17.60;39.90;;;;;;8298193;28;19925;-50
2021/12/28 03:46:51;;;;;;;;;;;17.60;39.80;;;;;;8298266;28;19929;-50
2021/12/28 03:50:52;;;;;;;;;;;17.60;39.80;;;;;;8298026;28;19949;-49
2021/12/28 03:54:52;;;;;;;;;;;17.60;39.80;;;;;;8297868;28;20460;-49
2021/12/28 03:58:52;;;;;;;;;;;17.60;39.80;;;;;;8297304;28;20397;-50
2021/12/28 04:02:53;;;;;;;;;;;17.60;39.80;;;;;;8297925;28;19940;-49
2021/12/28 04:06:53;;;;;;;;;;;17.50;39.80;;;;;;8297994;28;19913;-52
2021/12/28 04:11:13;;;;;;;;;;;17.50;39.80;;;;;;8297117;28;19917;-51
2021/12/28 04:15:14;;;;;;;;;;;17.50;39.80;;;;;;8303005;28;19918;-53
2021/12/28 04:19:14;;;;;;;;;;;17.50;39.90;;;;;;8297018;28;19931;-48
2021/12/28 04:23:15;;;;;;;;;;;17.50;40.30;;;;;;8298134;28;19922;-48
2021/12/28 04:27:15;;;;;;;;;;;17.50;39.90;;;;;;8297473;28;19925;-48
2021/12/28 04:31:16;;;;;;;;;;;17.50;40.00;;;;;;8296828;28;19921;-47
2021/12/28 04:35:16;;;;;;;;;;;17.50;40.00;;;;;;8297132;28;19924;-49
2021/12/28 04:39:17;;;;;;;;;;;17.50;40.00;;;;;;8299522;28;19926;-49
2021/12/28 04:43:17;;;;;;;;;;;17.50;40.00;;;;;;8303177;28;19932;-49
2021/12/28 04:47:18;;;;;;;;;;;17.50;40.10;;;;;;8304049;28;19925;-48
2021/12/28 04:51:19;;;;;;;;;;;17.50;40.10;;;;;;8303315;28;19964;-48
2021/12/28 04:55:19;;;;;;;;;;;17.50;40.10;;;;;;8302659;28;19917;-48
2021/12/28 04:59:19;;;;;;;;;;;17.50;40.10;;;;;;8303150;28;19930;-50
2021/12/28 05:03:20;;;;;;;;;;;17.50;40.10;;;;;;8302392;28;19913;-47
2021/12/28 05:07:21;;;;;;;;;;;17.50;40.10;;;;;;8302475;28;19918;-50
2021/12/28 05:11:21;;;;;;;;;;;17.50;40.10;;;;;;8302723;28;19917;-49
2021/12/28 05:15:22;;;;;;;;;;;17.50;40.10;;;;;;8302535;28;19924;-46
2021/12/28 05:19:22;;;;;;;;;;;17.50;40.20;;;;;;8302102;28;19926;-49
2021/12/28 05:23:23;;;;;;;;;;;17.50;40.20;;;;;;8302220;28;19914;-48
2021/12/28 05:27:23;;;;;;;;;;;17.50;40.20;;;;;;8302345;28;20371;-49
2021/12/28 05:31:27;;;;;;;;;;;17.50;40.10;;;;;;8301603;28;20401;-52
2021/12/28 05:35:28;;;;;;;;;;;17.50;40.10;;;;;;8301768;28;19918;-48
2021/12/28 05:39:28;;;;;;;;;;;17.50;40.20;;;;;;8301892;28;19975;-49
2021/12/28 05:43:29;;;;;;;;;;;17.50;40.20;;;;;;8301301;28;19917;-49
2021/12/28 05:47:29;;;;;;;;;;;17.50;40.20;;;;;;8302214;28;19975;-50
2021/12/28 05:51:30;;;;;;;;;;;17.50;40.20;;;;;;8300453;28;19971;-49
2021/12/28 05:55:32;;;;;;;;;;;17.50;40.20;;;;;;8300310;28;21338;-49
2021/12/28 05:59:33;;;;;;;;;;;17.50;40.30;;;;;;8301352;28;19933;-49
2021/12/28 06:03:33;;;;;;;;;;;17.50;40.30;;;;;;8301129;28;19921;-48
2021/12/28 06:07:34;;;;;;;;;;;17.50;40.30;;;;;;8300846;28;19944;-49
2021/12/28 06:11:34;;;;;;;;;;;17.50;40.30;;;;;;8301182;28;19952;-51
2021/12/28 06:15:35;;;;;;;;;;;17.50;40.30;;;;;;8300505;28;19924;-50
2021/12/28 06:19:35;;;;;;;;;;;17.50;40.30;;;;;;8300036;28;19926;-50
2021/12/28 06:23:36;;;;;;;;;;;17.50;40.30;;;;;;8300638;28;20411;-48
2021/12/28 06:27:36;;;;;;;;;;;17.50;40.30;;;;;;8300270;28;20375;-48
2021/12/28 06:31:37;;;;;;;;;;;17.50;40.30;;;;;;8299723;28;19917;-48
2021/12/28 06:35:38;;;;;;;;;;;17.50;40.30;;;;;;8300116;28;19949;-48
2021/12/28 06:39:39;;;;;;;;;;;17.50;40.30;;;;;;8299845;28;19929;-47
2021/12/28 06:43:39;;;;;;;;;;;17.50;40.30;;;;;;8299586;28;19914;-49
2021/12/28 06:47:39;;;;;;;;;;;17.50;40.30;;;;;;8299600;28;19922;-48
2021/12/28 06:51:40;;;;;;;;;;;17.50;40.40;;;;;;8298312;28;19921;-49
2021/12/28 06:55:40;;;;;;;;;;;17.50;40.40;;;;;;8298880;28;19918;-50
2021/12/28 06:59:45;;;;;;;;;;;17.50;40.40;;;;;;8299196;28;19969;-49
2021/12/28 07:03:46;;;;;;;;;;;17.50;40.50;;;;;;8299406;28;19918;-48
2021/12/28 07:07:46;;;;;;;;;;;17.50;40.40;;;;;;8299213;28;19940;-50
2021/12/28 07:11:47;;;;;;;;;;;17.50;40.50;;;;;;8298971;28;20401;-49
2021/12/28 07:15:47;;;;;;;;;;;17.50;40.40;;;;;;8298797;28;19913;-49
2021/12/28 07:19:48;;;;;;;;;;;17.50;40.40;;;;;;8298173;28;19936;-51
2021/12/28 07:23:48;;;;;;;;;;;17.50;40.50;;;;;;8298857;28;19945;-48
2021/12/28 07:27:49;;;;;;;;;;;17.50;40.50;;;;;;8298407;28;19922;-49
2021/12/28 07:31:50;;;;;;;;;;;17.40;40.40;;;;;;8297991;28;20004;-48
2021/12/28 07:35:50;;;;;;;;;;;17.50;40.50;;;;;;8298495;28;19917;-48
2021/12/28 07:39:53;;;;;;;;;;;17.50;40.50;;;;;;8298286;28;19921;-49
2021/12/28 07:43:53;;;;;;;;;;;17.50;40.40;;;;;;8297865;28;19967;-49
2021/12/28 07:47:54;;;;;;;;;;;17.50;40.50;;;;;;8298228;28;19979;-49
2021/12/28 07:51:54;;;;;;;;;;;17.50;40.80;;;;;;8298095;28;19918;-50
2021/12/28 07:55:57;;;;;;;;;;;17.50;40.90;;;;;;8297465;28;19924;-48
2021/12/28 07:59:58;;;;;;;;;;;17.60;41.00;;;;;;8298006;28;19921;-50
2021/12/28 08:03:58;;;;;;;;;;;17.60;40.80;;;;;;8298027;28;19948;-49
2021/12/28 08:07:59;;;;;;;;;;;17.60;40.70;;;;;;8296795;28;19921;-49
2021/12/28 08:12:00;;;;;;;;;;;17.60;40.80;;;;;;8279907;28;19992;-48
2021/12/28 08:16:00;;;;;;;;;;;17.70;40.70;;;;;;8277639;28;20319;-48
2021/12/28 08:20:00;;;;;;;;;;;17.70;40.80;;;;;;8296834;28;19933;-49
2021/12/28 08:24:01;;;;;;;;;;;17.70;40.80;;;;;;8297536;28;20298;-50
2021/12/28 08:28:04;;;;;;;;;;;17.70;40.80;;;;;;8297280;28;19929;-49
2021/12/28 08:32:05;;;;;;;;;;;17.70;40.80;;;;;;8296706;28;19944;-49
2021/12/28 08:36:06;;;;;;;;;;;17.70;40.80;;;;;;8297294;28;20363;-48
2021/12/28 08:40:07;;;;;;;;;;;17.70;40.90;;;;;;8297085;28;19925;-49
2021/12/28 08:44:07;;;;;;;;;;;17.80;41.00;;;;;;8296773;28;20390;-50
2021/12/28 08:48:11;;;;;;;;;;;17.80;41.00;;;;;;8297033;28;20004;-49
2021/12/28 08:52:11;;;;;;;;;;;17.80;40.90;;;;;;8296974;28;19956;-46
2021/12/28 08:56:11;;;;;;;;;;;17.80;40.90;;;;;;8296459;28;19968;-48
2021/12/28 09:00:15;;;;;;;;;;;17.80;40.90;;;;;;8296650;28;19922;-47
2021/12/28 09:04:16;;;;;;;;;;;17.80;41.10;;;;;;8296318;28;19917;-49
2021/12/28 09:08:18;;;;;;;;;;;17.80;41.00;;;;;;8296644;28;19964;-47
2021/12/28 09:12:19;;;;;;;;;;;17.80;41.10;;;;;;8296545;28;19929;-48
2021/12/28 09:16:19;;;;;;;;;;;17.80;41.10;;;;;;8295977;28;20290;-52
2021/12/28 09:20:21;;;;;;;;;;;17.80;41.00;;;;;;8296657;28;19926;-52
2021/12/28 09:24:22;;;;;;;;;;;17.80;41.20;;;;;;8296603;28;19979;-48
2021/12/28 09:28:23;;;;;;;;;;;17.80;41.00;;;;;;8300898;28;19953;-50
2021/12/28 09:32:23;;;;;;;;;;;17.80;41.00;;;;;;8302358;28;20000;-49
2021/12/28 09:36:24;;;;;;;;;;;17.80;41.00;;;;;;8302120;28;19919;-50
2021/12/28 09:40:24;;;;;;;;;;;17.80;41.00;;;;;;8301221;28;19929;-49
2021/12/28 09:44:25;;;;;;;;;;;17.80;41.00;;;;;;8301987;28;19917;-49
2021/12/28 09:48:25;;;;;;;;;;;17.80;41.00;;;;;;8301637;28;19923;-49
2021/12/28 09:52:27;;;;;;;;;;;17.80;41.00;;;;;;8301086;28;20367;-50
2021/12/28 09:56:27;;;;;;;;;;;17.80;41.00;;;;;;8301656;28;19925;-49
2021/12/28 10:00:28;;;;;;;;;;;17.80;41.00;;;;;;8301302;28;19926;-49
2021/12/28 10:04:28;;;;;;;;;;;17.80;41.10;;;;;;8300767;28;20062;-49
2021/12/28 10:08:29;;;;;;;;;;;17.80;41.50;;;;;;8300871;28;19918;-48
2021/12/28 10:12:31;;;;;;;;;;;17.80;41.00;;;;;;8300704;28;19918;-51
2021/12/28 10:16:46;;;;;;;;;;;17.80;41.00;;;;;;8300102;28;19925;-50
2021/12/28 10:20:48;;;;;;;;;;;17.80;41.00;;;;;;8300325;28;19925;-48
2021/12/28 10:24:50;;;;;;;;;;;17.80;41.00;;;;;;8300716;28;19917;-49
2021/12/28 10:28:52;;;;;;;;;;;17.80;41.00;;;;;;8300062;28;20318;-49
2021/12/28 10:32:54;;;;;;;;;;;17.80;41.00;;;;;;8300476;28;19921;-49
2021/12/28 10:36:55;;;;;;;;;;;17.80;41.00;;;;;;8299610;28;20385;-48
2021/12/28 10:40:57;;;;;;;;;;;17.80;41.00;;;;;;8299394;28;19926;-49
2021/12/28 10:45:00;;;;;;;;;;;17.80;41.00;;;;;;8300352;28;20427;-49
2021/12/28 10:49:02;;;;;;;;;;;17.80;41.00;;;;;;8299719;28;20359;-52
2021/12/28 10:53:12;;;;;;;;;;;17.80;41.10;;;;;;8299113;28;20004;-49
2021/12/28 10:57:13;;;;;;;;;;;17.80;41.10;;;;;;8299504;28;20009;-53
2021/12/28 11:01:14;;;;;;;;;;;17.80;41.00;;;;;;8299329;28;19917;-49
2021/12/28 11:05:28;;;;;;;;;;;17.80;41.10;;;;;;8298830;28;20371;-49
2021/12/28 11:09:29;;;;;;;;;;;17.80;41.10;;;;;;8299142;28;20048;-47
2021/12/28 11:13:30;;;;;;;;;;;17.80;41.10;;;;;;8298606;28;19917;-48
2021/12/28 11:17:31;;;;;;;;;;;17.80;41.20;;;;;;8299079;28;19961;-49
2021/12/28 11:21:33;;;;;;;;;;;17.80;41.20;;;;;;8298779;28;19918;-49
2021/12/28 11:25:34;;;;;;;;;;;17.90;41.20;;;;;;8298521;28;19913;-51
2021/12/28 11:29:36;;;;;;;;;;;17.90;41.20;;;;;;8298749;28;20012;-50
2021/12/28 11:33:45;;;;;;;;;;;17.90;41.20;;;;;;8298563;28;20294;-49
2021/12/28 11:37:45;;;;;;;;;;;17.90;41.20;;;;;;8297924;28;20429;-50
2021/12/28 11:41:47;;;;;;;;;;;17.90;41.30;;;;;;8298237;28;19918;-48
2021/12/28 11:45:48;;;;;;;;;;;17.80;41.30;;;;;;8298272;28;19967;-50
2021/12/28 11:49:50;;;;;;;;;;;17.90;41.30;;;;;;8297083;28;19917;-52
2021/12/28 11:53:51;;;;;;;;;;;17.90;41.40;;;;;;8298174;28;19952;-48
2021/12/28 11:57:53;;;;;;;;;;;17.90;41.40;;;;;;8298110;28;19925;-51
2021/12/28 12:02:03;;;;;;;;;;;17.90;41.30;;;;;;8297355;28;20844;-48
2021/12/28 12:06:04;;;;;;;;;;;17.90;41.30;;;;;;8297852;28;19913;-47
2021/12/28 12:10:06;;;;;;;;;;;17.90;41.40;;;;;;8297746;28;19924;-50
2021/12/28 12:14:06;;;;;;;;;;;17.90;41.40;;;;;;8297122;28;19940;-48
2021/12/28 12:18:09;;;;;;;;;;;17.90;41.40;;;;;;8297647;28;19925;-48
2021/12/28 12:22:28;;;;;;;;;;;17.90;41.40;;;;;;8297563;28;20378;-48
2021/12/28 12:26:30;;;;;;;;;;;17.90;41.50;;;;;;8297054;28;19980;-47
2021/12/28 12:30:33;;;;;;;;;;;17.90;41.60;;;;;;8297361;28;20000;-49
2021/12/28 12:34:36;;;;;;;;;;;17.90;41.60;;;;;;8296721;28;19917;-48
2021/12/28 12:38:37;;;;;;;;;;;17.90;41.60;;;;;;8297169;28;19925;-49
2021/12/28 12:42:38;;;;;;;;;;;17.90;41.60;;;;;;8297159;28;19913;-50
2021/12/28 12:46:40;;;;;;;;;;;17.90;41.60;;;;;;8296942;28;19972;-50
2021/12/28 12:50:41;;;;;;;;;;;17.90;41.60;;;;;;8297413;28;19913;-50
2021/12/28 12:54:44;;;;;;;;;;;17.90;41.70;;;;;;8296773;28;19924;-49
2021/12/28 12:58:46;;;;;;;;;;;17.90;41.70;;;;;;8296295;28;19925;-50
2021/12/28 13:02:57;;;;;;;;;;;17.90;41.70;;;;;;8302578;28;19960;-48
2021/12/28 13:06:57;;;;;;;;;;;17.90;41.70;;;;;;8302933;28;19917;-47
2021/12/28 13:10:57;;;;;;;;;;;17.90;41.70;;;;;;8302405;28;20007;-52
2021/12/28 13:14:58;;;;;;;;;;;17.90;41.80;;;;;;8302545;28;19925;-50
2021/12/28 13:19:08;;;;;;;;;;;17.90;41.80;;;;;;8302561;28;20059;-49
2021/12/28 13:23:09;;;;;;;;;;;17.90;41.80;;;;;;8301864;28;19922;-49
2021/12/28 13:27:11;;;;;;;;;;;17.90;41.80;;;;;;8302500;28;20378;-51
2021/12/28 13:31:11;;;;;;;;;;;17.90;41.80;;;;;;8302511;28;19918;-48
2021/12/28 13:35:15;;;;;;;;;;;17.90;41.80;;;;;;8301456;28;19960;-48
2021/12/28 13:39:16;;;;;;;;;;;17.90;41.90;;;;;;8301829;28;20019;-50
2021/12/28 13:43:18;;;;;;;;;;;17.90;41.90;;;;;;8301655;28;20434;-47
2021/12/28 13:47:19;;;;;;;;;;;17.90;41.90;;;;;;8302011;28;19926;-50
2021/12/28 13:51:24;;;;;;;;;;;17.90;41.90;;;;;;8301801;28;19945;-50
2021/12/28 13:55:24;;;;;;;;;;;17.90;42.00;;;;;;8301037;28;19971;-48
2021/12/28 13:59:27;;;;;;;;;;;17.90;42.00;;;;;;8301318;28;20342;-48
2021/12/28 14:03:28;;;;;;;;;;;17.90;42.00;;;;;;8301394;28;20282;-50
2021/12/28 14:07:28;;;;;;;;;;;17.90;41.90;;;;;;8300091;28;20008;-48
2021/12/28 14:11:32;;;;;;;;;;;17.90;41.90;;;;;;8300359;28;19964;-53
2021/12/28 14:15:52;;;;;;;;;;;17.90;42.00;;;;;;8301071;28;20287;-49
2021/12/28 14:19:55;;;;;;;;;;;17.90;42.00;;;;;;8282943;28;20398;-49
2021/12/28 14:23:57;;;;;;;;;;;17.90;42.00;;;;;;8300957;28;19917;-52
2021/12/28 14:27:58;;;;;;;;;;;17.90;41.90;;;;;;8300583;28;20310;-52
2021/12/28 14:32:00;;;;;;;;;;;17.90;42.00;;;;;;8300004;28;19928;-49
2021/12/28 14:36:07;;;;;;;;;;;17.90;41.90;;;;;;8300432;28;19913;-50
2021/12/28 14:40:22;;;;;;;;;;;17.90;41.90;;;;;;8300164;28;20008;-51
2021/12/28 14:44:28;;;;;;;;;;;17.90;41.90;;;;;;8299575;28;19917;-50
2021/12/28 14:48:30;;;;;;;;;;;17.90;41.90;;;;;;8304717;28;19924;-49
2021/12/28 14:52:35;;;;;;;;;;;17.90;41.90;;;;;;8299164;28;19953;-52
2021/12/28 14:56:36;;;;;;;;;;;17.90;41.90;;;;;;8298511;28;19921;-50
2021/12/28 15:00:41;;;;;;;;;;;17.90;41.90;;;;;;8281286;28;19971;-51
2021/12/28 15:04:49;;;;;;;;;;;17.90;41.90;;;;;;8287551;28;19921;-50
2021/12/28 15:08:50;;;;;;;;;;;18.00;41.90;;;;;;8283849;28;20306;-48
2021/12/28 15:12:51;;;;;;;;;;;18.00;41.90;;;;;;8298824;28;20004;-48
2021/12/28 15:16:51;;;;;;;;;;;17.90;41.80;;;;;;8277520;28;19987;-50
2021/12/28 15:20:52;;;;;;;;;;;18.00;41.90;;;;;;8295571;28;20283;-48
2021/12/28 15:24:52;;;;;;;;;;;17.90;41.80;;;;;;8300838;28;19968;-51
2021/12/28 15:28:53;;;;;;;;;;;17.90;41.90;;;;;;8296787;28;19922;-50
2021/12/28 15:32:53;;;;;;;;;;;17.90;41.70;;;;;;8298532;28;19921;-51
2021/12/28 15:36:54;;;;;;;;;;;17.90;41.70;;;;;;8298571;28;19917;-52
2021/12/28 15:40:56;;;;;;;;;;;17.90;41.80;;;;;;8297647;28;19933;-48
2021/12/28 15:44:56;;;;;;;;;;;17.90;41.70;;;;;;8298444;28;20286;-48
2021/12/28 15:48:57;;;;;;;;;;;17.90;41.80;;;;;;8298275;28;19928;-50
2021/12/28 15:52:57;;;;;;;;;;;17.90;41.80;;;;;;8297688;28;19924;-50
2021/12/28 15:56:58;;;;;;;;;;;17.90;41.70;;;;;;8298275;28;20047;-50
2021/12/28 16:00:58;;;;;;;;;;;17.90;41.80;;;;;;8297724;28;20354;-48
2021/12/28 16:04:58;;;;;;;;;;;17.90;41.80;;;;;;8297427;28;19928;-52
2021/12/28 16:08:59;;;;;;;;;;;17.90;41.70;;;;;;8297622;28;19972;-53
2021/12/28 16:13:00;;;;;;;;;;;17.90;41.80;;;;;;8297624;28;19925;-50
2021/12/28 16:17:00;;;;;;;;;;;17.90;41.80;;;;;;8297195;28;19913;-48
2021/12/28 16:21:01;;;;;;;;;;;17.90;41.70;;;;;;8297364;28;19925;-50
2021/12/28 16:25:03;;;;;;;;;;;17.90;41.70;;;;;;8297522;28;19921;-50
2021/12/28 16:29:03;;;;;;;;;;;17.90;41.70;;;;;;8296714;28;20210;-49
2021/12/28 16:33:04;;;;;;;;;;;17.90;41.80;;;;;;8297490;28;19939;-52
2021/12/28 16:37:05;;;;;;;;;;;17.90;41.70;;;;;;8302399;28;19960;-52
2021/12/28 16:41:07;;;;;;;;;;;17.90;41.60;;;;;;8303235;28;20345;-50
2021/12/28 16:45:08;;;;;;;;;;;18.00;41.70;;;;;;8304012;28;19936;-48
2021/12/28 16:49:09;;;;;;;;;;;18.00;41.70;;;;;;8303601;28;20356;-48
2021/12/28 16:53:09;;;;;;;;;;;17.90;41.70;;;;;;8303026;28;19949;-49
2021/12/28 16:57:10;;;;;;;;;;;17.90;41.60;;;;;;8303333;28;20452;-51
2021/12/28 17:01:10;;;;;;;;;;;17.90;41.60;;;;;;8303067;28;19925;-52
2021/12/28 17:05:11;;;;;;;;;;;17.90;41.70;;;;;;8301941;28;19917;-48
2021/12/28 17:09:11;;;;;;;;;;;17.90;41.70;;;;;;8303192;28;19925;-49
2021/12/28 17:13:13;;;;;;;;;;;18.00;41.70;;;;;;8302822;28;19993;-49
2021/12/28 17:17:14;;;;;;;;;;;18.00;41.70;;;;;;8302452;28;19921;-49
2021/12/28 17:21:16;;;;;;;;;;;17.90;41.70;;;;;;8302443;28;19926;-47
2021/12/28 17:25:16;;;;;;;;;;;17.90;41.70;;;;;;8302065;28;19921;-48
2021/12/28 17:29:17;;;;;;;;;;;17.90;41.80;;;;;;8302079;28;19972;-49
2021/12/28 17:33:17;;;;;;;;;;;17.90;41.70;;;;;;8302112;28;19925;-48
2021/12/28 17:37:18;;;;;;;;;;;18.00;41.80;;;;;;8301710;28;19968;-50
2021/12/28 17:41:18;;;;;;;;;;;17.90;41.60;;;;;;8301811;28;19926;-48
2021/12/28 17:45:22;;;;;;;;;;;17.90;41.70;;;;;;8301594;28;19968;-47
2021/12/28 17:49:22;;;;;;;;;;;17.90;41.70;;;;;;8300302;28;19922;-49
2021/12/28 17:53:23;;;;;;;;;;;18.00;41.70;;;;;;8301337;28;19960;-49
2021/12/28 17:57:23;;;;;;;;;;;17.90;41.60;;;;;;8301595;28;20259;-49
2021/12/28 18:01:24;;;;;;;;;;;18.00;41.70;;;;;;8300864;28;19917;-49
2021/12/28 18:05:24;;;;;;;;;;;17.90;41.70;;;;;;8301379;28;20000;-51
2021/12/28 18:09:26;;;;;;;;;;;18.00;41.70;;;;;;8301036;28;19918;-48
2021/12/28 18:13:26;;;;;;;;;;;17.90;41.70;;;;;;8300457;28;19920;-49
2021/12/28 18:17:27;;;;;;;;;;;18.00;41.70;;;;;;8301388;28;20363;-48
2021/12/28 18:21:27;;;;;;;;;;;18.00;41.70;;;;;;8300789;28;20293;-49
2021/12/28 18:25:28;;;;;;;;;;;17.90;41.60;;;;;;8300034;28;19971;-50
2021/12/28 18:29:34;;;;;;;;;;;17.90;41.70;;;;;;8300291;28;19918;-53
2021/12/28 18:33:34;;;;;;;;;;;18.00;41.60;;;;;;8300447;28;20367;-50
2021/12/28 18:37:35;;;;;;;;;;;18.00;41.70;;;;;;8299906;28;19928;-52
2021/12/28 18:41:36;;;;;;;;;;;18.00;41.60;;;;;;8300130;28;19917;-51
2021/12/28 18:45:37;;;;;;;;;;;17.90;41.70;;;;;;8300342;28;19922;-49
2021/12/28 18:49:37;;;;;;;;;;;18.00;41.70;;;;;;8299288;28;19924;-51
2021/12/28 18:53:38;;;;;;;;;;;18.00;41.70;;;;;;8299926;28;20290;-51
2021/12/28 18:57:38;;;;;;;;;;;17.90;41.60;;;;;;8299349;28;19921;-48
2021/12/28 19:01:39;;;;;;;;;;;17.90;41.60;;;;;;8299123;28;19999;-49
2021/12/28 19:05:39;;;;;;;;;;;17.90;41.60;;;;;;8299215;28;19928;-50
2021/12/28 19:09:40;;;;;;;;;;;17.90;41.60;;;;;;8299433;28;19971;-50
2021/12/28 19:13:40;;;;;;;;;;;17.90;41.60;;;;;;8298889;28;19921;-51
2021/12/28 19:17:41;;;;;;;;;;;17.90;41.60;;;;;;8298932;28;19997;-49
2021/12/28 19:21:41;;;;;;;;;;;18.00;41.70;;;;;;8298737;28;20279;-48
2021/12/28 19:25:42;;;;;;;;;;;18.00;41.60;;;;;;8298229;28;20386;-49
2021/12/28 19:29:43;;;;;;;;;;;17.90;41.60;;;;;;8298712;28;19972;-48
2021/12/28 19:33:43;;;;;;;;;;;17.90;41.60;;;;;;8298767;28;19913;-48
2021/12/28 19:37:44;;;;;;;;;;;18.00;41.70;;;;;;8298039;28;19995;-51
2021/12/28 19:41:45;;;;;;;;;;;18.00;41.60;;;;;;8298127;28;19918;-48
2021/12/28 19:45:50;;;;;;;;;;;18.00;41.60;;;;;;8298713;28;20344;-48
2021/12/28 19:49:50;;;;;;;;;;;18.00;41.60;;;;;;8297632;28;19918;-49
2021/12/28 19:53:51;;;;;;;;;;;18.00;41.60;;;;;;8298578;28;19975;-48
2021/12/28 19:57:54;;;;;;;;;;;18.00;41.50;;;;;;8298009;28;20386;-49
2021/12/28 20:01:55;;;;;;;;;;;18.00;41.60;;;;;;8297464;28;19924;-47
2021/12/28 20:05:55;;;;;;;;;;;18.00;41.50;;;;;;8297435;28;19917;-49
2021/12/28 20:09:56;;;;;;;;;;;18.00;41.50;;;;;;8297209;28;19918;-51
2021/12/28 20:13:56;;;;;;;;;;;18.00;41.50;;;;;;8297504;28;20328;-50
2021/12/28 20:17:57;;;;;;;;;;;18.00;41.50;;;;;;8297899;28;19929;-47
2021/12/28 20:21:57;;;;;;;;;;;18.00;41.50;;;;;;8297461;28;20007;-48
2021/12/28 20:25:59;;;;;;;;;;;18.00;41.50;;;;;;8297067;28;20311;-48
2021/12/28 20:30:00;;;;;;;;;;;17.90;41.50;;;;;;8297654;28;20405;-47
2021/12/28 20:34:01;;;;;;;;;;;18.00;41.50;;;;;;8297667;28;19952;-49
2021/12/28 20:38:01;;;;;;;;;;;17.90;41.60;;;;;;8296735;28;19948;-49
2021/12/28 20:42:02;;;;;;;;;;;17.90;41.50;;;;;;8297030;28;19918;-49
2021/12/28 20:46:03;;;;;;;;;;;18.00;41.60;;;;;;8297577;28;19921;-50
2021/12/28 20:50:04;;;;;;;;;;;18.00;41.60;;;;;;8296677;28;20394;-50
2021/12/28 20:54:05;;;;;;;;;;;18.00;41.60;;;;;;8297447;28;19914;-51
2021/12/28 20:58:06;;;;;;;;;;;18.00;41.60;;;;;;8296807;28;19972;-49
2021/12/28 21:02:07;;;;;;;;;;;18.00;41.60;;;;;;8296426;28;20531;-48
2021/12/28 21:06:08;;;;;;;;;;;18.00;41.60;;;;;;8296846;28;19964;-52
2021/12/28 21:10:10;;;;;;;;;;;18.00;41.60;;;;;;8296670;28;19918;-49
2021/12/28 21:14:10;;;;;;;;;;;18.00;41.60;;;;;;8296495;28;20375;-49
2021/12/28 21:18:10;;;;;;;;;;;18.00;41.60;;;;;;8296694;28;19933;-50
2021/12/28 21:22:11;;;;;;;;;;;18.00;41.50;;;;;;8299856;28;19924;-48
2021/12/28 21:26:11;;;;;;;;;;;18.00;41.60;;;;;;8302168;28;20290;-49
2021/12/28 21:30:13;;;;;;;;;;;18.00;41.50;;;;;;8302586;28;20430;-49
2021/12/28 21:34:13;;;;;;;;;;;17.90;41.40;;;;;;8302448;28;20228;-51
2021/12/28 21:38:14;;;;;;;;;;;18.00;41.40;;;;;;8301639;28;20382;-48
2021/12/28 21:42:15;;;;;;;;;;;18.00;41.40;;;;;;8301937;28;20390;-47
2021/12/28 21:46:15;;;;;;;;;;;18.00;41.40;;;;;;8301670;28;19928;-47
2021/12/28 21:50:17;;;;;;;;;;;18.00;41.30;;;;;;8302051;28;19922;-49
2021/12/28 21:54:17;;;;;;;;;;;18.00;41.30;;;;;;8302017;28;19945;-48
2021/12/28 21:58:20;;;;;;;;;;;18.00;41.20;;;;;;8301072;28;19927;-49
2021/12/28 22:02:21;;;;;;;;;;;18.00;41.20;;;;;;8301393;28;19922;-49
2021/12/28 22:06:21;;;;;;;;;;;18.00;41.20;;;;;;8301272;28;20371;-48
2021/12/28 22:10:23;;;;;;;;;;;18.00;41.20;;;;;;8300423;28;19917;-50
2021/12/28 22:14:23;;;;;;;;;;;18.00;41.20;;;;;;8301413;28;19914;-51
2021/12/28 22:18:24;;;;;;;;;;;17.90;41.00;;;;;;8300958;28;20401;-47
2021/12/28 22:22:25;;;;;;;;;;;17.90;41.10;;;;;;8300360;28;19917;-49
2021/12/28 22:26:25;;;;;;;;;;;17.90;41.10;;;;;;8300535;28;19918;-49
2021/12/28 22:30:28;;;;;;;;;;;17.90;41.00;;;;;;8300713;28;19932;-50
2021/12/28 22:34:29;;;;;;;;;;;17.90;41.00;;;;;;8299441;28;19914;-48
2021/12/28 22:38:33;;;;;;;;;;;17.90;41.00;;;;;;8300536;28;20349;-48
2021/12/28 22:42:35;;;;;;;;;;;17.90;41.00;;;;;;8300203;28;20275;-49
2021/12/28 22:46:35;;;;;;;;;;;17.90;41.00;;;;;;8300027;28;19937;-51
2021/12/28 22:50:37;;;;;;;;;;;17.90;41.00;;;;;;8299859;28;19914;-47
2021/12/28 22:54:37;;;;;;;;;;;17.90;41.00;;;;;;8299974;28;20020;-48
2021/12/28 22:58:38;;;;;;;;;;;17.90;41.00;;;;;;8298994;28;19926;-49
2021/12/28 23:02:39;;;;;;;;;;;17.90;41.00;;;;;;8299105;28;19964;-47
2021/12/28 23:06:40;;;;;;;;;;;17.90;41.00;;;;;;8298722;28;19925;-49
2021/12/28 23:10:41;;;;;;;;;;;17.90;41.10;;;;;;8298102;28;19920;-48
2021/12/28 23:14:42;;;;;;;;;;;17.90;41.10;;;;;;8299284;28;19924;-48
2021/12/28 23:18:42;;;;;;;;;;;17.90;41.20;;;;;;8299166;28;19926;-48
2021/12/28 23:22:43;;;;;;;;;;;17.90;41.30;;;;;;8298604;28;19918;-48